Time;durP1;ratioP1;P1;durP2;ratioP2;P2;SDS_P1;SDS_P2;PMS_P1;PMS_P2;Temp;Humidity;BMP_temperature;BMP_pressure;BME280_temperature;BME280_humidity;BME280_pressure;Samples;Min_cycle;Max_cycle;Signal;HPM_P1;HPM_P2
2023/06/16 00:00:03;;;;;;;16.35;5.95;;;;;;;15.56;62.86;96252.91;5031424;28;20119;-74
2023/06/16 00:02:32;;;;;;;17.13;5.95;;;;;;;15.52;62.45;96246.53;5031729;28;20124;-72
2023/06/16 00:05:01;;;;;;;17.83;6.30;;;;;;;15.51;62.62;96247.69;5031627;28;20512;-72
2023/06/16 00:07:33;;;;;;;16.73;6.07;;;;;;;15.48;62.96;96242.88;5031462;28;20095;-72
2023/06/16 00:09:59;;;;;;;21.50;7.17;;;;;;;15.49;63.30;96239.00;5030548;28;20444;-72
2023/06/16 00:12:26;;;;;;;17.08;5.88;;;;;;;15.47;63.37;96241.31;5030045;28;20413;-72
2023/06/16 00:14:53;;;;;;;17.27;6.70;;;;;;;15.47;63.39;96242.09;5030775;28;20053;-72
2023/06/16 00:17:20;;;;;;;17.73;6.28;;;;;;;15.45;63.35;96246.31;5030575;28;20041;-72
2023/06/16 00:19:47;;;;;;;15.43;5.70;;;;;;;15.39;62.98;96248.53;5031296;28;20148;-72
2023/06/16 00:22:13;;;;;;;14.50;5.63;;;;;;;15.34;63.37;96248.78;5031052;28;20041;-72
2023/06/16 00:24:41;;;;;;;17.23;6.50;;;;;;;15.30;63.97;96243.22;5031401;28;20511;-71
2023/06/16 00:27:08;;;;;;;16.60;6.60;;;;;;;15.25;63.90;96240.72;5030306;28;20054;-72
2023/06/16 00:29:36;;;;;;;14.95;6.00;;;;;;;15.22;64.35;96244.16;5031311;28;20045;-72
2023/06/16 00:32:03;;;;;;;15.88;6.55;;;;;;;15.18;64.33;96239.72;5030802;28;20104;-72
2023/06/16 00:34:30;;;;;;;15.20;6.13;;;;;;;15.12;64.27;96237.22;5026882;28;20056;-72
2023/06/16 00:36:57;;;;;;;16.67;6.05;;;;;;;15.03;64.41;96244.00;5021423;28;20052;-73
2023/06/16 00:39:24;;;;;;;13.20;5.82;;;;;;;14.97;64.26;96235.25;5011072;28;20200;-72
2023/06/16 00:41:52;;;;;;;18.15;6.95;;;;;;;14.87;64.77;96242.00;5011828;28;20050;-72
2023/06/16 00:44:18;;;;;;;16.17;6.28;;;;;;;14.71;64.85;96238.41;5010580;28;20048;-72
2023/06/16 00:46:45;;;;;;;18.40;7.20;;;;;;;14.59;65.10;96238.47;5011503;28;20050;-71
2023/06/16 00:49:11;;;;;;;14.82;6.38;;;;;;;14.54;65.47;96236.75;5026880;28;20053;-72
2023/06/16 00:51:38;;;;;;;15.15;6.15;;;;;;;14.55;66.50;96241.09;5031165;28;20042;-72
2023/06/16 00:54:06;;;;;;;17.77;6.97;;;;;;;14.60;66.34;96242.78;5030634;28;20049;-72
2023/06/16 00:56:34;;;;;;;17.80;7.00;;;;;;;14.61;66.95;96247.13;5024594;28;20129;-72
2023/06/16 00:59:02;;;;;;;13.70;6.28;;;;;;;14.63;67.87;96247.59;5029495;28;20038;-72
2023/06/16 01:01:30;;;;;;;15.05;6.53;;;;;;;14.68;67.70;96236.38;5030873;28;20033;-72
2023/06/16 01:03:57;;;;;;;14.73;6.25;;;;;;;14.70;67.45;96238.78;5029151;28;20045;-72
2023/06/16 01:06:41;;;;;;;17.05;6.70;;;;;;;14.64;66.62;96238.22;5010347;28;20052;-71
2023/06/16 01:09:16;;;;;;;15.70;6.43;;;;;;;14.60;66.75;96232.63;5010275;28;20066;-72
2023/06/16 01:11:48;;;;;;;20.67;6.82;;;;;;;14.53;66.18;96231.63;5015348;28;20425;-72
2023/06/16 01:14:23;;;;;;;15.73;6.60;;;;;;;14.53;66.26;96234.38;5022911;28;20041;-72
2023/06/16 01:16:51;;;;;;;18.35;6.95;;;;;;;14.52;67.15;96216.34;5030792;28;20050;-72
2023/06/16 01:19:28;;;;;;;16.25;6.35;;;;;;;14.55;67.05;96230.13;5029916;28;20045;-72
2023/06/16 01:22:01;;;;;;;14.05;6.03;;;;;;;14.59;67.30;96227.50;5030308;28;20621;-72
2023/06/16 01:24:33;;;;;;;16.75;6.85;;;;;;;14.59;67.20;96222.03;5030003;28;20061;-72
2023/06/16 01:27:01;;;;;;;16.77;6.88;;;;;;;14.59;67.33;96222.03;5030561;28;20045;-72
2023/06/16 01:29:35;;;;;;;16.40;6.45;;;;;;;14.55;66.87;96223.84;5029946;28;20065;-72
2023/06/16 01:32:04;;;;;;;16.55;6.43;;;;;;;14.49;67.20;96219.75;5029872;28;20042;-74
2023/06/16 01:34:33;;;;;;;17.67;7.10;;;;;;;14.45;67.57;96218.81;5029865;28;20056;-72
2023/06/16 01:37:01;;;;;;;26.73;8.23;;;;;;;14.42;67.19;96214.06;5030140;28;20069;-72
2023/06/16 01:39:30;;;;;;;27.10;7.88;;;;;;;14.38;66.97;96224.91;5029132;28;20052;-72
2023/06/16 01:41:58;;;;;;;24.33;6.88;;;;;;;14.36;67.22;96217.03;5025505;28;20052;-72
2023/06/16 01:44:26;;;;;;;21.13;7.45;;;;;;;14.32;67.98;96213.38;5009217;28;20058;-72
2023/06/16 01:46:54;;;;;;;19.77;6.93;;;;;;;14.27;67.67;96221.03;5027316;28;20045;-72
2023/06/16 01:49:20;;;;;;;17.98;6.93;;;;;;;14.27;67.88;96210.88;5029377;28;20045;-72
2023/06/16 01:51:47;;;;;;;21.48;7.10;;;;;;;14.28;68.38;96219.88;5029169;28;20048;-72
2023/06/16 01:54:14;;;;;;;20.98;7.63;;;;;;;14.26;68.02;96211.22;5023253;28;20049;-72
2023/06/16 01:56:41;;;;;;;18.05;7.32;;;;;;;14.24;68.09;96214.28;5028735;28;20523;-72
2023/06/16 01:59:08;;;;;;;11.80;6.00;;;;;;;14.19;67.88;96214.53;5028275;28;20049;-72
2023/06/16 02:01:40;;;;;;;14.68;6.45;;;;;;;14.17;67.71;96219.56;5030025;28;20482;-72
2023/06/16 02:04:10;;;;;;;16.70;6.75;;;;;;;14.11;68.07;96215.47;5029306;28;20076;-72
2023/06/16 02:06:41;;;;;;;15.30;6.65;;;;;;;14.12;67.61;96219.78;5029165;28;20493;-72
2023/06/16 02:09:09;;;;;;;15.32;6.57;;;;;;;14.05;67.46;96216.84;5030468;28;20046;-72
2023/06/16 02:11:36;;;;;;;17.10;6.88;;;;;;;14.12;67.75;96221.75;5031368;28;20041;-72
2023/06/16 02:14:04;;;;;;;14.50;7.40;;;;;;;13.94;67.49;96221.16;5030422;28;20042;-72
2023/06/16 02:16:36;;;;;;;12.27;6.53;;;;;;;14.03;67.39;96224.59;5035841;28;20048;-72
2023/06/16 02:19:03;;;;;;;17.40;6.80;;;;;;;14.12;67.50;96222.53;5018467;28;20111;-73
2023/06/16 02:21:29;;;;;;;16.02;6.68;;;;;;;14.16;67.76;96225.38;5030415;28;20057;-72
2023/06/16 02:23:56;;;;;;;13.60;6.18;;;;;;;14.21;68.33;96222.41;5030495;28;20049;-72
2023/06/16 02:26:24;;;;;;;16.77;6.80;;;;;;;14.24;67.89;96219.78;5029625;28;20049;-72
2023/06/16 02:28:50;;;;;;;17.52;7.32;;;;;;;14.25;67.27;96221.38;5030486;28;20489;-72
2023/06/16 02:31:18;;;;;;;13.30;6.63;;;;;;;14.22;66.88;96221.28;5031144;28;20382;-72
2023/06/16 02:33:45;;;;;;;14.77;6.75;;;;;;;14.21;66.72;96223.22;5032944;28;20046;-72
2023/06/16 02:36:13;;;;;;;16.00;6.90;;;;;;;14.20;67.02;96224.38;5033046;28;20068;-72
2023/06/16 02:38:40;;;;;;;16.35;6.68;;;;;;;14.19;67.03;96220.00;5033592;28;20045;-72
2023/06/16 02:41:06;;;;;;;19.02;7.38;;;;;;;14.17;66.83;96225.03;5030026;28;20524;-72
2023/06/16 02:43:33;;;;;;;16.50;6.65;;;;;;;14.17;66.91;96225.03;5029730;28;20041;-72
2023/06/16 02:46:00;;;;;;;16.10;6.82;;;;;;;14.12;67.14;96228.00;5029924;28;20497;-72
2023/06/16 02:48:28;;;;;;;14.75;6.97;;;;;;;14.12;67.15;96233.47;5024117;28;20045;-72
2023/06/16 02:50:55;;;;;;;16.48;7.07;;;;;;;14.10;67.35;96230.31;5026846;28;20050;-72
2023/06/16 02:53:24;;;;;;;14.93;6.43;;;;;;;14.15;68.39;96232.81;5021462;28;20057;-73
2023/06/16 02:55:51;;;;;;;17.73;7.28;;;;;;;14.19;68.10;96239.16;5029090;28;20092;-72
2023/06/16 02:58:18;;;;;;;16.63;7.15;;;;;;;14.16;68.00;96239.88;5020695;28;20037;-72
2023/06/16 03:00:44;;;;;;;15.63;6.95;;;;;;;14.12;68.14;96238.97;5029177;28;20041;-72
2023/06/16 03:03:11;;;;;;;17.48;7.32;;;;;;;14.13;68.11;96243.28;5028413;28;20045;-72
2023/06/16 03:05:39;;;;;;;16.20;7.40;;;;;;;14.15;68.60;96243.75;5029218;28;20037;-72
2023/06/16 03:08:06;;;;;;;22.17;8.40;;;;;;;14.10;68.28;96246.72;5024023;28;20124;-72
2023/06/16 03:10:32;;;;;;;19.25;7.38;;;;;;;14.08;68.23;96243.53;5032946;28;20052;-72
2023/06/16 03:12:59;;;;;;;17.13;8.20;;;;;;;14.00;68.61;96247.19;5032951;28;20053;-72
2023/06/16 03:15:26;;;;;;;12.13;6.78;;;;;;;13.99;69.16;96240.91;5032211;28;20041;-72
2023/06/16 03:17:53;;;;;;;24.00;8.77;;;;;;;13.86;69.24;96235.78;5032560;28;20118;-72
2023/06/16 03:20:21;;;;;;;11.73;6.43;;;;;;;13.98;69.63;96241.25;5032464;28;20052;-72
2023/06/16 03:22:49;;;;;;;14.07;6.90;;;;;;;14.00;69.67;96241.72;5032841;28;20053;-72
2023/06/16 03:25:16;;;;;;;19.92;7.53;;;;;;;13.97;69.25;96245.13;5032302;28;20065;-72
2023/06/16 03:27:42;;;;;;;15.75;7.32;;;;;;;13.97;69.79;96242.38;5032658;28;20429;-72
2023/06/16 03:30:09;;;;;;;18.65;8.13;;;;;;;13.97;70.17;96247.88;5031110;28;20238;-72
2023/06/16 03:32:37;;;;;;;15.45;7.53;;;;;;;13.96;70.00;96240.78;5032304;28;20129;-72
2023/06/16 03:35:04;;;;;;;15.63;7.80;;;;;;;13.92;69.82;96245.34;5030171;28;20057;-71
2023/06/16 03:37:31;;;;;;;19.75;8.30;;;;;;;13.83;70.08;96257.22;5032691;28;20049;-72
2023/06/16 03:40:05;;;;;;;19.33;9.05;;;;;;;13.69;70.70;96253.22;5031850;28;20127;-72
2023/06/16 03:42:31;;;;;;;20.23;9.23;;;;;;;13.43;71.80;96258.97;5025475;28;20040;-72
2023/06/16 03:44:58;;;;;;;20.02;9.05;;;;;;;13.38;72.40;96264.66;5032313;28;20046;-72
2023/06/16 03:47:24;;;;;;;19.48;9.00;;;;;;;13.42;72.13;96271.06;5023006;28;20045;-72
2023/06/16 03:49:51;;;;;;;19.85;8.98;;;;;;;13.42;72.18;96271.06;5016132;28;20042;-72
2023/06/16 03:52:18;;;;;;;19.80;8.90;;;;;;;13.43;72.15;96275.38;5011889;28;20413;-72
2023/06/16 03:54:44;;;;;;;16.92;8.68;;;;;;;13.45;72.19;96271.16;5014583;28;20053;-72
2023/06/16 03:57:13;;;;;;;23.30;8.85;;;;;;;13.55;72.97;96275.41;5031241;28;20084;-72
2023/06/16 03:59:40;;;;;;;18.95;8.23;;;;;;;13.60;73.30;96277.94;5031981;28;20045;-72
2023/06/16 04:02:07;;;;;;;15.50;7.85;;;;;;;13.59;73.03;96273.59;5031721;28;20053;-72
2023/06/16 04:04:34;;;;;;;17.85;8.45;;;;;;;13.62;72.79;96278.38;5034748;28;20441;-71
2023/06/16 04:07:01;;;;;;;18.10;7.80;;;;;;;13.64;72.54;96284.31;5028989;28;20053;-72
2023/06/16 04:09:28;;;;;;;21.85;8.80;;;;;;;13.69;71.97;96278.63;5031436;28;20046;-71
2023/06/16 04:11:54;;;;;;;17.52;8.68;;;;;;;13.72;71.67;96280.69;5023715;28;20042;-72
2023/06/16 04:14:22;;;;;;;18.17;9.65;;;;;;;13.72;71.39;96285.34;5031448;28;20044;-72
2023/06/16 04:16:49;;;;;;;20.45;9.40;;;;;;;13.76;71.21;96281.59;5031882;28;20050;-72
2023/06/16 04:19:17;;;;;;;17.50;8.05;;;;;;;13.80;71.25;96285.25;5029870;28;20045;-72
2023/06/16 04:21:44;;;;;;;19.67;8.35;;;;;;;13.87;71.22;96289.38;5031571;28;20046;-72
2023/06/16 04:24:11;;;;;;;21.13;9.55;;;;;;;13.89;71.31;96292.59;5037232;28;20128;-72
2023/06/16 04:26:41;;;;;;;17.80;8.75;;;;;;;13.94;70.81;96292.34;5011837;28;20136;-72
2023/06/16 04:29:08;;;;;;;17.63;8.77;;;;;;;13.99;70.93;96281.16;5027584;28;20552;-72
2023/06/16 04:31:37;;;;;;;23.63;10.32;;;;;;;13.96;70.59;96285.41;5031462;28;20129;-72
2023/06/16 04:34:03;;;;;;;18.00;10.07;;;;;;;13.82;71.05;96279.44;5029788;28;20388;-73
2023/06/16 04:36:30;;;;;;;21.48;10.18;;;;;;;13.78;71.08;96290.28;5032914;28;20156;-72
2023/06/16 04:38:57;;;;;;;19.20;9.18;;;;;;;13.95;71.09;96283.00;5030978;28;20053;-72
2023/06/16 04:41:24;;;;;;;19.30;9.55;;;;;;;14.04;70.67;96286.41;5023094;28;20038;-72
2023/06/16 04:43:50;;;;;;;17.75;9.80;;;;;;;13.99;70.28;96284.72;5030786;28;20525;-72
2023/06/16 04:46:17;;;;;;;17.25;9.52;;;;;;;14.06;70.34;96284.16;5030598;28;20046;-72
2023/06/16 04:48:45;;;;;;;21.45;10.75;;;;;;;13.68;71.88;96288.00;5030938;28;20045;-72
2023/06/16 04:51:11;;;;;;;18.83;9.27;;;;;;;13.99;71.46;96283.91;5030446;28;20141;-72
2023/06/16 04:53:38;;;;;;;22.15;9.38;;;;;;;14.16;72.10;96286.44;5031058;28;20042;-72
2023/06/16 04:56:04;;;;;;;14.82;8.05;;;;;;;14.28;71.61;96286.41;5029332;28;20056;-72
2023/06/16 04:58:31;;;;;;;18.85;9.32;;;;;;;14.34;71.05;96279.56;5030891;28;20041;-72
2023/06/16 05:00:58;;;;;;;19.08;9.30;;;;;;;14.47;71.03;96285.03;5030880;28;20088;-72
2023/06/16 05:03:24;;;;;;;16.80;8.52;;;;;;;14.56;71.12;96291.19;5030119;28;20045;-72
2023/06/16 05:05:52;;;;;;;12.68;8.07;;;;;;;14.64;70.43;96287.56;5030918;28;20042;-72
2023/06/16 05:08:19;;;;;;;24.77;9.48;;;;;;;14.59;69.87;96293.25;5030021;28;20050;-72
2023/06/16 05:10:45;;;;;;;17.50;8.50;;;;;;;14.68;69.78;96293.94;5030501;28;20481;-72
2023/06/16 05:13:12;;;;;;;19.65;10.32;;;;;;;14.70;69.70;96297.13;5029542;28;20140;-72
2023/06/16 05:15:38;;;;;;;15.50;9.50;;;;;;;14.45;69.00;96298.28;5030493;28;20045;-72
2023/06/16 05:18:05;;;;;;;26.52;10.18;;;;;;;14.63;68.73;96296.91;5030193;28;20042;-72
2023/06/16 05:20:32;;;;;;;15.07;8.70;;;;;;;14.72;69.73;96292.13;5030565;28;20493;-72
2023/06/16 05:23:02;;;;;;;26.77;9.88;;;;;;;14.73;70.23;96290.97;5030294;28;20099;-72
2023/06/16 05:25:29;;;;;;;21.33;9.40;;;;;;;14.56;69.77;96302.16;5029852;28;20405;-72
2023/06/16 05:27:55;;;;;;;23.38;9.88;;;;;;;14.47;70.34;96293.25;5029715;28;20409;-72
2023/06/16 05:30:22;;;;;;;21.83;9.02;;;;;;;14.45;69.43;96292.78;5023889;28;20050;-72
2023/06/16 05:32:48;;;;;;;17.60;9.55;;;;;;;14.44;70.23;96293.94;5030429;28;20044;-72
2023/06/16 05:35:15;;;;;;;21.98;10.25;;;;;;;14.47;70.27;96293.25;5029841;28;20045;-72
2023/06/16 05:37:41;;;;;;;22.27;9.48;;;;;;;14.38;70.61;96296.13;5029985;28;20492;-72
2023/06/16 05:40:11;;;;;;;19.30;9.07;;;;;;;14.53;70.40;96287.22;5029747;28;20045;-72
2023/06/16 05:42:38;;;;;;;19.67;9.48;;;;;;;14.60;70.36;96292.13;5029898;28;20064;-72
2023/06/16 05:45:05;;;;;;;20.33;9.65;;;;;;;14.63;70.00;96290.66;5029661;28;20045;-72
2023/06/16 05:47:32;;;;;;;19.60;8.80;;;;;;;14.61;70.45;96293.72;5029627;28;20700;-72
2023/06/16 05:49:59;;;;;;;21.38;9.13;;;;;;;14.64;70.62;96290.28;5029750;28;20056;-72
2023/06/16 05:52:26;;;;;;;21.10;9.75;;;;;;;14.80;70.42;96295.84;5029049;28;20052;-72
2023/06/16 05:54:52;;;;;;;18.52;8.13;;;;;;;15.01;69.40;96290.19;5030165;28;20132;-72
2023/06/16 05:57:20;;;;;;;21.17;9.57;;;;;;;15.19;68.82;96297.00;5028991;28;20053;-72
2023/06/16 05:59:48;;;;;;;20.10;8.88;;;;;;;15.22;68.03;96296.28;5027946;28;20064;-71
2023/06/16 06:02:15;;;;;;;15.25;7.72;;;;;;;15.46;67.64;96286.34;5029449;28;20053;-72
2023/06/16 06:04:41;;;;;;;18.55;7.78;;;;;;;15.67;67.14;96288.91;5029904;28;20494;-72
2023/06/16 06:07:08;;;;;;;18.98;8.15;;;;;;;15.84;67.01;96297.59;5029025;28;20045;-72
2023/06/16 06:09:34;;;;;;;17.17;7.85;;;;;;;15.83;65.91;96297.94;5029688;28;20037;-72
2023/06/16 06:12:01;;;;;;;21.77;8.60;;;;;;;15.95;65.61;96295.13;5028869;28;20049;-72
2023/06/16 06:14:29;;;;;;;21.33;8.32;;;;;;;16.04;65.61;96300.44;5029310;28;20053;-72
2023/06/16 06:16:55;;;;;;;16.88;7.18;;;;;;;16.18;65.58;96304.34;5029962;28;20038;-72
2023/06/16 06:19:23;;;;;;;16.17;7.68;;;;;;;16.23;64.82;96306.00;5028909;28;20049;-72
2023/06/16 06:21:50;;;;;;;22.30;7.68;;;;;;;16.42;64.08;96303.31;5029531;28;20049;-72
2023/06/16 06:24:17;;;;;;;16.30;7.03;;;;;;;16.62;64.06;96308.88;5027848;28;20581;-72
2023/06/16 06:26:44;;;;;;;15.75;7.10;;;;;;;16.67;62.39;96308.63;5029219;28;20061;-73
2023/06/16 06:29:11;;;;;;;19.08;7.47;;;;;;;16.75;62.11;96315.88;5028707;28;20089;-73
2023/06/16 06:31:39;;;;;;;16.52;6.60;;;;;;;16.86;62.12;96305.94;5031607;28;20053;-72
2023/06/16 06:34:05;;;;;;;11.35;6.00;;;;;;;16.99;60.89;96314.06;5026634;28;20497;-73
2023/06/16 06:36:36;;;;;;;17.73;6.65;;;;;;;17.14;61.21;96316.75;5029408;28;20377;-73
2023/06/16 06:39:03;;;;;;;11.27;5.60;;;;;;;17.16;58.86;96317.16;5029126;28;20325;-73
2023/06/16 06:41:29;;;;;;;13.57;5.70;;;;;;;17.33;59.30;96318.72;5022965;28;20053;-73
2023/06/16 06:43:56;;;;;;;23.60;7.72;;;;;;;17.47;59.39;96318.97;5033012;28;20045;-73
2023/06/16 06:46:23;;;;;;;18.00;7.00;;;;;;;17.59;59.19;96325.47;5032314;28;20041;-72
2023/06/16 06:48:51;;;;;;;17.40;6.97;;;;;;;17.72;60.37;96329.69;5031297;28;20067;-73
2023/06/16 06:51:17;;;;;;;26.95;7.85;;;;;;;17.73;59.18;96326.59;5029102;28;20054;-73
2023/06/16 06:53:44;;;;;;;19.95;6.57;;;;;;;17.89;58.45;96322.94;5030069;28;20538;-73
2023/06/16 06:56:11;;;;;;;18.17;6.30;;;;;;;18.04;58.34;96327.53;5029566;28;20108;-73
2023/06/16 06:58:38;;;;;;;19.77;6.03;;;;;;;17.94;57.28;96323.44;5027557;28;20128;-73
2023/06/16 07:01:04;;;;;;;25.33;8.52;;;;;;;18.05;55.81;96325.59;5029560;28;20053;-73
2023/06/16 07:03:32;;;;;;;21.30;7.38;;;;;;;17.92;55.72;96323.00;5022821;28;20050;-73
2023/06/16 07:06:00;;;;;;;19.48;6.72;;;;;;;18.07;56.04;96328.78;5027203;28;20048;-74
2023/06/16 07:08:26;;;;;;;16.23;6.10;;;;;;;18.18;55.00;96324.25;5029846;28;20053;-73
2023/06/16 07:10:53;;;;;;;17.52;6.38;;;;;;;18.07;55.65;96329.56;5029895;28;20046;-73
2023/06/16 07:13:19;;;;;;;24.70;7.43;;;;;;;18.25;56.79;96325.16;5029102;28;20061;-72
2023/06/16 07:15:46;;;;;;;14.68;5.47;;;;;;;18.35;55.65;96326.50;5024805;28;20046;-73
2023/06/16 07:18:12;;;;;;;27.15;7.28;;;;;;;18.40;55.74;96326.19;5026663;28;20046;-73
2023/06/16 07:20:38;;;;;;;20.92;6.38;;;;;;;18.47;55.28;96320.78;5029502;28;20061;-73
2023/06/16 07:23:06;;;;;;;23.08;7.03;;;;;;;18.59;54.85;96324.53;5017523;28;20667;-73
2023/06/16 07:25:36;;;;;;;18.40;6.35;;;;;;;18.75;54.73;96325.19;5021943;28;20133;-73
2023/06/16 07:28:03;;;;;;;23.35;7.22;;;;;;;18.84;55.79;96328.44;5029074;28;20582;-75
2023/06/16 07:30:29;;;;;;;17.42;5.90;;;;;;;18.99;56.18;96330.25;5021478;28;20085;-73
2023/06/16 07:32:56;;;;;;;19.13;6.25;;;;;;;19.18;54.62;96329.31;5029002;28;20049;-74
2023/06/16 07:35:23;;;;;;;19.08;6.60;;;;;;;19.24;53.40;96324.28;5028902;28;20045;-73
2023/06/16 07:37:50;;;;;;;24.50;7.38;;;;;;;19.32;53.94;96331.50;5029750;28;20049;-73
2023/06/16 07:40:18;;;;;;;17.30;6.75;;;;;;;19.36;53.21;96329.53;5028718;28;20440;-73
2023/06/16 07:42:45;;;;;;;21.27;6.95;;;;;;;19.44;54.17;96328.47;5026065;28;20052;-74
2023/06/16 07:45:12;;;;;;;24.55;8.18;;;;;;;19.54;53.71;96330.56;5026552;28;20049;-74
2023/06/16 07:47:39;;;;;;;21.98;7.22;;;;;;;19.75;53.20;96326.50;5028212;28;20066;-73
2023/06/16 07:50:08;;;;;;;21.92;7.10;;;;;;;19.93;52.14;96327.47;5028065;28;20103;-73
2023/06/16 07:52:35;;;;;;;16.35;5.93;;;;;;;20.07;52.54;96322.09;5027531;28;20733;-73
2023/06/16 07:55:01;;;;;;;15.45;6.20;;;;;;;20.15;52.23;96316.59;5029434;28;20499;-73
2023/06/16 07:57:29;;;;;;;19.92;6.75;;;;;;;20.15;51.36;96317.44;5028862;28;20049;-73
2023/06/16 07:59:56;;;;;;;16.02;6.35;;;;;;;20.32;49.39;96318.75;5027749;28;20053;-74
2023/06/16 08:02:23;;;;;;;21.67;6.72;;;;;;;20.31;49.82;96314.41;5028182;28;20045;-74
2023/06/16 08:04:50;;;;;;;19.08;6.80;;;;;;;20.49;49.65;96315.34;5029197;28;20051;-73
2023/06/16 08:07:16;;;;;;;20.17;7.13;;;;;;;20.73;50.62;96311.19;5028535;28;20053;-73
2023/06/16 08:09:43;;;;;;;18.92;6.70;;;;;;;20.95;50.34;96314.91;5028289;28;20536;-74
2023/06/16 08:12:10;;;;;;;17.73;6.72;;;;;;;21.09;49.10;96311.41;5028443;28;20056;-74
2023/06/16 08:14:38;;;;;;;16.45;6.60;;;;;;;21.15;49.93;96311.84;5032426;28;20534;-74
2023/06/16 08:17:05;;;;;;;10.25;5.07;;;;;;;21.20;46.12;96319.78;5027235;28;20046;-74
2023/06/16 08:19:32;;;;;;;20.90;6.20;;;;;;;21.04;44.95;96312.56;5028312;28;20369;-73
2023/06/16 08:21:59;;;;;;;15.15;5.65;;;;;;;21.06;44.64;96304.66;5028991;28;20050;-73
2023/06/16 08:24:26;;;;;;;16.65;5.82;;;;;;;21.35;46.05;96311.19;5027917;28;20052;-73
2023/06/16 08:26:52;;;;;;;26.80;6.95;;;;;;;21.26;43.53;96313.47;5028435;28;20057;-73
2023/06/16 08:29:19;;;;;;;19.25;6.63;;;;;;;21.35;45.17;96319.50;5018476;28;20057;-72
2023/06/16 08:31:47;;;;;;;15.30;5.53;;;;;;;21.43;44.18;96317.53;5022437;28;20056;-73
2023/06/16 08:34:14;;;;;;;19.13;6.50;;;;;;;21.38;43.83;96309.59;5028146;28;20057;-73
2023/06/16 08:36:41;;;;;;;16.40;5.75;;;;;;;21.57;45.78;96309.28;5028859;28;20057;-73
2023/06/16 08:39:07;;;;;;;21.65;6.40;;;;;;;21.83;43.52;96313.72;5028854;28;20069;-73
2023/06/16 08:41:35;;;;;;;20.63;6.13;;;;;;;22.09;44.92;96309.00;5029246;28;20046;-74
2023/06/16 08:44:04;;;;;;;22.42;5.65;;;;;;;22.32;42.18;96305.88;5012479;28;20088;-74
2023/06/16 08:46:31;;;;;;;14.70;5.03;;;;;;;22.59;42.40;96306.28;5022352;28;20068;-73
2023/06/16 08:48:59;;;;;;;22.25;5.78;;;;;;;22.52;42.02;96304.31;5032132;28;20138;-73
2023/06/16 08:51:27;;;;;;;18.35;5.35;;;;;;;22.50;42.01;96306.69;5036092;28;20049;-74
2023/06/16 08:54:00;;;;;;;20.30;5.55;;;;;;;22.38;40.66;96307.06;5012430;28;20042;-74
2023/06/16 08:56:29;;;;;;;20.73;5.60;;;;;;;22.30;40.39;96299.94;5030855;28;20045;-74
2023/06/16 08:58:57;;;;;;;24.05;6.00;;;;;;;22.39;40.63;96289.22;5027100;28;20049;-74
2023/06/16 09:01:24;;;;;;;21.38;5.95;;;;;;;22.34;40.78;96295.19;5015075;28;20053;-74
2023/06/16 09:03:52;;;;;;;24.33;6.00;;;;;;;22.36;41.50;96287.28;5033962;28;20060;-74
2023/06/16 09:06:19;;;;;;;16.00;5.40;;;;;;;22.64;42.52;96284.47;5035269;28;20046;-74
2023/06/16 09:08:46;;;;;;;19.65;5.10;;;;;;;22.94;40.92;96286.03;5032688;28;20049;-73
2023/06/16 09:11:12;;;;;;;14.93;5.07;;;;;;;23.09;40.13;96278.47;5033775;28;20060;-74
2023/06/16 09:13:42;;;;;;;16.67;5.00;;;;;;;23.26;40.11;96266.50;5028184;28;20045;-74
2023/06/16 09:16:09;;;;;;;22.70;5.90;;;;;;;23.44;40.12;96264.44;5020656;28;20104;-74
2023/06/16 09:18:44;;;;;;;24.67;6.07;;;;;;;23.62;40.14;96264.34;5027409;28;20049;-74
2023/06/16 09:21:11;;;;;;;22.23;6.00;;;;;;;23.65;37.94;96266.34;5019695;28;20057;-74
2023/06/16 09:23:39;;;;;;;21.40;5.72;;;;;;;23.49;39.15;96254.91;5019077;28;20061;-73
2023/06/16 09:26:15;;;;;;;21.15;5.72;;;;;;;23.26;37.94;96254.59;5026957;28;20048;-74
2023/06/16 09:28:44;;;;;;;21.85;5.47;;;;;;;23.23;37.42;96253.44;5019184;28;20088;-73
2023/06/16 09:31:12;;;;;;;19.67;4.78;;;;;;;22.84;37.09;96253.50;5019148;28;20169;-73
2023/06/16 09:33:39;;;;;;;24.85;5.85;;;;;;;22.67;37.83;96257.91;5016097;28;20104;-73
2023/06/16 09:36:06;;;;;;;32.15;7.65;;;;;;;22.25;39.97;96261.50;5022622;28;20053;-73
2023/06/16 09:38:36;;;;;;;30.00;7.32;;;;;;;21.13;46.56;96264.34;5016203;28;20056;-72
2023/06/16 09:41:15;;;;;;;24.13;6.40;;;;;;;19.25;47.86;96259.59;5022709;28;20632;-73
2023/06/16 09:43:43;;;;;;;18.65;6.03;;;;;;;19.12;47.86;96255.53;5031550;28;20460;-73
2023/06/16 09:46:11;;;;;;;13.77;4.93;;;;;;;19.29;45.59;96249.41;5029864;28;20048;-73
2023/06/16 09:48:46;;;;;;;17.23;5.15;;;;;;;19.27;45.02;96251.75;5042005;28;20045;-73
2023/06/16 09:51:15;;;;;;;11.90;5.07;;;;;;;19.86;47.03;96238.97;5040455;28;20120;-73
2023/06/16 09:53:43;;;;;;;12.73;5.07;;;;;;;20.43;45.18;96244.97;5031124;28;20057;-73
2023/06/16 09:56:13;;;;;;;15.75;5.45;;;;;;;20.91;44.20;96247.63;5030189;28;20046;-73
2023/06/16 09:58:40;;;;;;;25.38;7.28;;;;;;;21.17;44.00;96237.47;5042506;28;20393;-73
2023/06/16 10:01:07;;;;;;;18.92;6.22;;;;;;;21.39;45.05;96244.69;5036253;28;20052;-73
2023/06/16 10:03:38;;;;;;;30.08;8.38;;;;;;;21.51;43.51;96241.59;5034663;28;20046;-73
2023/06/16 10:06:12;;;;;;;16.63;5.57;;;;;;;21.58;43.39;96247.13;5034913;28;20045;-72
2023/06/16 10:08:40;;;;;;;19.42;6.20;;;;;;;21.81;42.31;96232.13;5025322;28;20061;-72
2023/06/16 10:11:10;;;;;;;16.92;6.32;;;;;;;22.04;46.46;96245.63;5015081;28;20069;-75
2023/06/16 10:13:39;;;;;;;21.08;6.70;;;;;;;21.71;43.79;96232.91;5019730;28;20050;-73
2023/06/16 10:16:10;;;;;;;16.80;6.30;;;;;;;21.34;45.17;96229.25;5017569;28;20053;-73
2023/06/16 10:18:37;;;;;;;18.00;6.10;;;;;;;21.14;46.94;96232.72;5025231;28;20106;-72
2023/06/16 10:21:04;;;;;;;18.92;6.32;;;;;;;20.71;46.85;96233.28;5014670;28;20437;-73
2023/06/16 10:23:31;;;;;;;23.08;6.60;;;;;;;20.40;47.84;96229.13;5010131;28;20461;-73
2023/06/16 10:25:58;;;;;;;22.73;7.13;;;;;;;20.33;47.19;96231.84;5031181;28;20048;-73
2023/06/16 10:28:25;;;;;;;16.77;5.70;;;;;;;20.34;47.02;96225.13;5020587;28;20047;-73
2023/06/16 10:30:54;;;;;;;18.33;5.78;;;;;;;20.41;47.84;96230.72;5019806;28;20791;-72
2023/06/16 10:33:24;;;;;;;24.00;6.43;;;;;;;20.15;48.00;96233.66;5022933;28;20056;-73
2023/06/16 10:35:52;;;;;;;26.33;7.00;;;;;;;20.15;46.97;96230.91;5026400;28;20052;-73
2023/06/16 10:38:18;;;;;;;20.13;6.30;;;;;;;20.12;48.85;96226.94;5025904;28;20049;-73
2023/06/16 10:40:45;;;;;;;19.25;6.35;;;;;;;20.05;47.27;96232.44;5026617;28;20057;-72
2023/06/16 10:43:24;;;;;;;16.55;5.15;;;;;;;20.24;48.52;96221.13;5026277;28;20053;-73
2023/06/16 10:45:50;;;;;;;20.55;6.45;;;;;;;20.48;47.98;96219.75;5025817;28;20056;-73
2023/06/16 10:48:18;;;;;;;20.80;6.95;;;;;;;20.55;46.28;96221.75;5025607;28;20054;-73
2023/06/16 10:50:45;;;;;;;19.15;6.20;;;;;;;20.55;45.64;96219.78;5028385;28;20058;-73
2023/06/16 10:53:13;;;;;;;24.63;6.50;;;;;;;20.59;44.39;96214.25;5006425;28;20050;-73
2023/06/16 10:55:42;;;;;;;18.90;5.85;;;;;;;20.70;44.27;96211.56;5026181;28;20050;-73
2023/06/16 10:58:30;;;;;;;30.35;7.97;;;;;;;20.87;45.48;96202.53;5024089;28;20619;-73
2023/06/16 11:00:59;;;;;;;18.75;5.85;;;;;;;20.82;43.33;96212.00;5011915;28;20058;-72
2023/06/16 11:03:35;;;;;;;22.17;6.13;;;;;;;20.90;44.52;96206.53;5013139;28;20543;-73
2023/06/16 11:06:03;;;;;;;21.60;5.78;;;;;;;20.92;46.11;96226.28;5019104;28;20523;-75
2023/06/16 11:08:29;;;;;;;19.42;5.82;;;;;;;20.75;44.24;96216.72;5025698;28;20049;-73
2023/06/16 11:11:04;;;;;;;22.13;6.22;;;;;;;20.79;40.05;96217.53;5026056;28;20492;-73
2023/06/16 11:13:32;;;;;;;21.60;5.90;;;;;;;20.89;37.99;96227.88;5025129;28;20065;-73
2023/06/16 11:16:00;;;;;;;16.73;5.00;;;;;;;21.07;39.18;96216.88;5016414;28;20057;-73
2023/06/16 11:18:28;;;;;;;18.17;5.28;;;;;;;21.18;39.92;96227.97;5008436;28;20050;-72
2023/06/16 11:21:01;;;;;;;21.77;6.05;;;;;;;21.46;40.27;96222.56;5019921;28;20046;-73
2023/06/16 11:23:27;;;;;;;21.52;6.22;;;;;;;21.94;40.36;96215.91;5024592;28;20050;-72
2023/06/16 11:26:02;;;;;;;17.88;5.40;;;;;;;22.19;39.19;96213.19;5006761;28;20042;-73